createdAt,value
2019-06-27T00:01:05.072Z,49.20
2019-06-27T00:05:55.957Z,50.10
2019-06-27T00:15:43.296Z,48.40
2019-06-27T00:20:35.015Z,49.90
2019-06-27T00:25:25.941Z,49.80
2019-06-27T00:30:18.525Z,50.70
2019-06-27T00:35:09.351Z,50.70
2019-06-27T00:40:00.267Z,49.10
2019-06-27T00:44:51.959Z,49.20
2019-06-27T00:49:42.866Z,49.10
2019-06-27T00:54:33.770Z,49.90
2019-06-27T00:59:24.751Z,50.50
2019-06-27T01:04:16.406Z,51.30
2019-06-27T01:09:08.073Z,49.30
2019-06-27T01:13:59.019Z,49.30
2019-06-27T01:18:49.969Z,49.40
2019-06-27T01:23:44.241Z,51.30
2019-06-27T01:28:32.606Z,50.70
2019-06-27T01:33:23.528Z,51.40
2019-06-27T01:38:14.563Z,51.50
2019-06-27T01:43:07.010Z,49.50
2019-06-27T01:47:57.935Z,49.40
2019-06-27T01:52:49.711Z,50.10
2019-06-27T01:57:46.516Z,50.60
2019-06-27T02:02:31.737Z,51.10
2019-06-27T02:07:23.489Z,51.10
2019-06-27T02:12:15.217Z,49.60
2019-06-27T02:17:06.941Z,49.50
2019-06-27T02:21:57.843Z,49.40
2019-06-27T02:26:48.789Z,50.00
2019-06-27T02:31:39.805Z,50.80
2019-06-27T02:36:30.827Z,50.90
2019-06-27T02:41:21.838Z,51.50
2019-06-27T02:46:12.768Z,50.20
2019-06-27T02:51:03.803Z,49.40
2019-06-27T02:55:55.463Z,51.20
2019-06-27T03:00:47.112Z,51.10
2019-06-27T03:05:38.104Z,51.00
2019-06-27T03:10:29.820Z,51.30
2019-06-27T03:15:20.834Z,51.10
2019-06-27T03:20:11.847Z,49.90
2019-06-27T03:25:02.790Z,49.70
2019-06-27T03:29:54.459Z,51.30
2019-06-27T03:34:45.455Z,51.20
2019-06-27T03:39:37.126Z,51.50
2019-06-27T03:44:28.115Z,51.40
2019-06-27T03:49:19.838Z,50.50
2019-06-27T03:54:10.791Z,50.00
2019-06-27T03:59:12.458Z,50.60
2019-06-27T04:03:53.405Z,50.50
2019-06-27T04:08:44.344Z,51.10
2019-06-27T04:13:35.252Z,51.50
2019-06-27T04:18:26.165Z,52.10
2019-06-27T04:23:17.104Z,50.90
2019-06-27T04:28:08.835Z,50.40
2019-06-27T04:32:59.859Z,50.40
2019-06-27T04:37:50.800Z,51.00
2019-06-27T04:42:42.533Z,52.00
2019-06-27T04:47:33.531Z,52.00
2019-06-27T04:52:24.464Z,52.20
2019-06-27T04:57:15.384Z,50.50
2019-06-27T05:02:06.348Z,50.30
2019-06-27T05:06:58.063Z,51.50
2019-06-27T05:11:49.112Z,51.30
2019-06-27T05:16:40.099Z,51.70
2019-06-27T05:21:31.128Z,52.10
2019-06-27T05:26:22.807Z,50.30
2019-06-27T05:31:13.737Z,50.40
2019-06-27T05:36:04.710Z,50.30
2019-06-27T05:40:55.646Z,50.70
2019-06-27T05:45:47.368Z,52.40
2019-06-27T05:50:38.266Z,52.40
2019-06-27T05:55:29.193Z,52.30
2019-06-27T06:00:28.211Z,50.60
2019-06-27T06:05:11.957Z,50.50
2019-06-27T06:10:03.807Z,50.50
2019-06-27T06:14:55.513Z,51.60
2019-06-27T06:19:46.424Z,51.50
2019-06-27T06:24:37.497Z,51.90
2019-06-27T06:29:29.147Z,50.00
2019-06-27T06:34:20.850Z,49.80
2019-06-27T06:39:16.027Z,49.70
2019-06-27T06:44:07.106Z,50.30
2019-06-27T06:48:58.825Z,51.60
2019-06-27T06:53:50.547Z,51.50
2019-06-27T06:58:42.311Z,51.10
2019-06-27T07:03:33.235Z,51.10
2019-06-27T07:08:24.255Z,50.10
2019-06-27T07:13:15.291Z,50.70
2019-06-27T07:18:07.036Z,51.20
2019-06-27T07:22:58.700Z,51.80
2019-06-27T07:27:49.660Z,51.70
2019-06-27T07:32:40.579Z,51.50
2019-06-27T07:37:31.499Z,49.70
2019-06-27T07:42:22.415Z,49.10
2019-06-27T07:47:13.344Z,49.00
2019-06-27T07:52:05.010Z,50.10
2019-06-27T07:56:56.674Z,50.30
2019-06-27T08:01:47.625Z,50.30
2019-06-27T08:06:38.533Z,50.00
2019-06-27T08:11:29.469Z,48.60
2019-06-27T08:16:20.397Z,48.40
2019-06-27T08:21:11.313Z,48.30
2019-06-27T08:26:02.231Z,48.60
2019-06-27T08:30:53.900Z,48.50
2019-06-27T08:35:45.694Z,47.30
2019-06-27T08:40:37.293Z,46.50
2019-06-27T08:45:28.236Z,46.50
2019-06-27T08:50:19.165Z,46.40
2019-06-27T08:55:10.091Z,47.00
2019-06-27T09:00:01.015Z,47.90
2019-06-27T09:04:51.951Z,48.20
2019-06-27T09:09:42.861Z,47.20
2019-06-27T09:14:33.792Z,46.20
2019-06-27T09:19:24.717Z,46.10
2019-06-27T09:24:16.373Z,46.80
2019-06-27T09:29:07.284Z,46.80
2019-06-27T09:33:58.937Z,45.80
2019-06-27T09:38:49.830Z,45.80
2019-06-27T09:43:41.490Z,44.70
2019-06-27T09:48:32.404Z,44.60
2019-06-27T09:53:23.320Z,45.00
2019-06-27T09:58:14.230Z,46.00
2019-06-27T10:03:05.880Z,46.40
2019-06-27T10:07:56.794Z,46.40
2019-06-27T10:12:48.445Z,44.10
2019-06-27T10:17:39.492Z,44.10
2019-06-27T10:22:30.333Z,43.80
2019-06-27T10:27:21.654Z,45.00
2019-06-27T10:32:12.557Z,45.20
2019-06-27T10:37:03.464Z,45.60
2019-06-27T10:41:54.413Z,45.30
2019-06-27T10:46:45.330Z,44.00
2019-06-27T10:51:36.254Z,43.80
2019-06-27T10:56:27.188Z,43.90
2019-06-27T11:01:18.091Z,44.30
2019-06-27T11:06:09.000Z,44.70
2019-06-27T11:10:59.919Z,44.90
2019-06-27T11:15:50.858Z,44.20
2019-06-27T11:20:42.518Z,42.60
2019-06-27T11:25:34.215Z,42.90
2019-06-27T11:30:25.133Z,42.90
2019-06-27T11:35:16.069Z,43.10
2019-06-27T11:40:06.967Z,43.40
2019-06-27T11:44:57.875Z,43.10
2019-06-27T11:49:48.792Z,41.90
2019-06-27T11:54:39.754Z,40.90
2019-06-27T11:59:30.678Z,40.30
2019-06-27T12:04:22.373Z,41.80
2019-06-27T12:09:13.293Z,41.80
2019-06-27T12:14:04.234Z,41.40
2019-06-27T12:18:55.143Z,40.70
2019-06-27T12:23:46.075Z,39.60
2019-06-27T12:28:37.118Z,38.90
2019-06-27T12:33:28.778Z,39.80
2019-06-27T12:38:19.688Z,39.40
2019-06-27T12:43:14.391Z,38.10
2019-06-27T12:48:07.156Z,38.10
2019-06-27T12:52:53.229Z,37.20
2019-06-27T12:57:44.186Z,37.40
2019-06-27T13:02:35.181Z,37.10
2019-06-27T13:07:26.118Z,35.80
2019-06-27T13:12:17.893Z,34.90
2019-06-27T13:17:08.802Z,34.90
2019-06-27T13:21:59.715Z,34.00
2019-06-27T13:26:50.674Z,34.30
2019-06-27T13:31:41.585Z,34.80
2019-06-27T13:36:33.444Z,34.90
2019-06-27T13:41:23.592Z,34.70
2019-06-27T13:46:14.501Z,34.80
2019-06-27T13:51:06.161Z,33.70
2019-06-27T13:55:57.085Z,33.60
2019-06-27T14:00:47.994Z,33.70
2019-06-27T14:05:38.908Z,33.60
2019-06-27T14:10:29.819Z,34.00
2019-06-27T14:15:20.744Z,35.30
2019-06-27T14:20:11.711Z,34.50
2019-06-27T14:25:02.620Z,33.60
2019-06-27T14:29:56.521Z,33.40
2019-06-27T14:34:44.470Z,34.30
2019-06-27T14:39:35.493Z,34.70
2019-06-27T14:44:26.635Z,35.50
2019-06-27T14:49:18.280Z,33.80
2019-06-27T14:54:10.025Z,33.20
2019-06-27T14:59:00.928Z,33.20
2019-06-27T15:03:52.590Z,33.50
2019-06-27T15:08:43.517Z,33.50
2019-06-27T15:13:34.427Z,35.10
2019-06-27T15:18:25.372Z,33.50
2019-06-27T15:23:16.282Z,33.40
2019-06-27T15:28:07.190Z,33.20
2019-06-27T15:32:58.123Z,33.00
2019-06-27T15:37:49.058Z,33.70
2019-06-27T15:42:39.986Z,33.60
2019-06-27T15:47:30.911Z,34.20
2019-06-27T15:52:21.816Z,33.70
2019-06-27T15:57:12.728Z,34.90
2019-06-27T16:02:03.732Z,33.80
2019-06-27T16:06:54.693Z,33.60
2019-06-27T16:11:46.307Z,36.00
2019-06-27T16:16:37.237Z,35.90
2019-06-27T16:21:28.139Z,35.20
2019-06-27T16:26:19.100Z,35.80
2019-06-27T16:31:10.008Z,35.50
2019-06-27T16:36:00.914Z,35.10
2019-06-27T16:40:51.859Z,35.20
2019-06-27T16:45:42.855Z,36.30
2019-06-27T16:50:33.760Z,37.70
2019-06-27T16:55:24.671Z,36.80
2019-06-27T17:00:15.663Z,36.30
2019-06-27T17:05:06.647Z,35.70
2019-06-27T17:09:59.043Z,37.40
2019-06-27T17:14:49.992Z,37.40
2019-06-27T17:19:40.902Z,38.50
2019-06-27T17:24:31.872Z,38.80
2019-06-27T17:29:23.545Z,37.40
2019-06-27T17:34:14.511Z,37.40
2019-06-27T17:39:05.414Z,37.70
2019-06-27T17:43:56.337Z,38.30
2019-06-27T17:48:47.265Z,39.50
2019-06-27T17:53:38.197Z,39.70
2019-06-27T17:58:29.257Z,39.40
2019-06-27T18:03:20.202Z,38.60
2019-06-27T18:08:11.161Z,38.70
2019-06-27T18:13:02.065Z,39.40
2019-06-27T18:17:52.987Z,40.60
2019-06-27T18:22:43.904Z,40.90
2019-06-27T18:27:34.806Z,40.80
2019-06-27T18:32:25.726Z,39.70
2019-06-27T18:37:29.375Z,39.80
2019-06-27T18:42:07.576Z,40.30
2019-06-27T18:46:58.504Z,41.00
2019-06-27T18:51:49.407Z,41.40
2019-06-27T18:56:40.318Z,40.30
2019-06-27T19:01:31.223Z,39.90
2019-06-27T19:06:22.132Z,40.40
2019-06-27T19:11:13.071Z,41.40
2019-06-27T19:16:03.993Z,42.20
2019-06-27T19:20:54.912Z,42.00
2019-06-27T19:25:46.729Z,41.10
2019-06-27T19:30:37.739Z,41.00
2019-06-27T19:35:28.749Z,42.30
2019-06-27T19:40:19.666Z,42.50
2019-06-27T19:45:10.705Z,43.10
2019-06-27T19:50:01.625Z,43.10
2019-06-27T19:54:52.539Z,41.90
2019-06-27T19:59:43.453Z,41.70
2019-06-27T20:04:34.432Z,42.20
2019-06-27T20:09:25.334Z,43.10
2019-06-27T20:14:16.264Z,43.70
2019-06-27T20:19:07.287Z,43.50
2019-06-27T20:23:58.461Z,43.40
2019-06-27T20:28:49.324Z,42.40
2019-06-27T20:33:40.228Z,42.50
2019-06-27T20:38:35.206Z,43.20
2019-06-27T20:43:23.064Z,44.80
2019-06-27T20:48:14.076Z,44.80
2019-06-27T20:53:04.979Z,44.60
2019-06-27T20:57:55.960Z,44.10
2019-06-27T21:02:48.412Z,43.40
2019-06-27T21:07:39.347Z,43.30
2019-06-27T21:12:30.356Z,44.10
2019-06-27T21:17:21.376Z,44.90
2019-06-27T21:22:12.392Z,45.40
2019-06-27T21:27:03.344Z,45.60
2019-06-27T21:31:54.250Z,44.30
2019-06-27T21:36:45.280Z,43.70
2019-06-27T21:41:36.983Z,44.80
2019-06-27T21:46:27.920Z,44.80
2019-06-27T21:51:18.923Z,45.50
2019-06-27T21:56:09.829Z,46.10
2019-06-27T22:01:00.741Z,46.20
2019-06-27T22:05:51.667Z,44.60
2019-06-27T22:10:42.611Z,44.20
2019-06-27T22:15:34.223Z,44.80
2019-06-27T22:20:25.167Z,45.50
2019-06-27T22:25:16.182Z,46.10
2019-06-27T22:30:07.197Z,46.40
2019-06-27T22:34:59.582Z,45.20
2019-06-27T22:39:57.522Z,45.00
2019-06-27T22:44:54.860Z,44.90
2019-06-27T22:49:45.727Z,45.50
2019-06-27T22:54:39.564Z,46.40
2019-06-27T22:59:30.535Z,46.90
2019-06-27T23:04:21.555Z,47.30
2019-06-27T23:09:14.007Z,45.30
2019-06-27T23:14:04.921Z,45.30
2019-06-27T23:18:55.838Z,45.80
2019-06-27T23:23:46.780Z,46.30
2019-06-27T23:28:37.783Z,47.10
2019-06-27T23:33:28.709Z,48.40
2019-06-27T23:38:19.755Z,47.60
2019-06-27T23:43:11.465Z,46.10
2019-06-27T23:48:02.483Z,46.10
2019-06-27T23:52:53.532Z,46.80
2019-06-27T23:57:45.251Z,48.00
